createdAt,value
2023-02-27T00:01:34.586Z,98988.53
2023-02-27T00:04:01.241Z,98989.34
2023-02-27T00:06:28.306Z,98989.38
2023-02-27T00:08:54.779Z,98991.09
2023-02-27T00:11:21.235Z,98992.81
2023-02-27T00:13:47.971Z,98980.84
2023-02-27T00:16:14.451Z,98984.25
2023-02-27T00:18:41.069Z,98978.28
2023-02-27T00:21:07.452Z,98961.19
2023-02-27T00:23:33.885Z,98963.75
2023-02-27T00:26:01.025Z,98966.31
2023-02-27T00:28:27.812Z,98967.19
2023-02-27T00:30:54.581Z,98963.78
2023-02-27T00:33:21.186Z,98973.19
2023-02-27T00:36:00.362Z,98970.63
2023-02-27T00:38:26.796Z,98980.91
2023-02-27T00:40:53.250Z,98979.19
2023-02-27T00:43:19.771Z,98968.94
2023-02-27T00:45:47.670Z,98972.34
2023-02-27T00:48:14.276Z,98972.34
2023-02-27T00:50:40.639Z,98968.09
2023-02-27T00:53:07.007Z,98962.97
2023-02-27T00:55:33.603Z,98956.97
2023-02-27T00:58:00.006Z,98947.56
2023-02-27T01:00:26.435Z,98939.88
2023-02-27T01:02:52.864Z,98931.31
2023-02-27T01:05:19.441Z,98936.47
2023-02-27T01:07:45.813Z,98933.06
2023-02-27T01:10:12.486Z,98933.09
2023-02-27T01:12:39.270Z,98929.66
2023-02-27T01:15:06.406Z,98932.22
2023-02-27T01:17:32.952Z,98922.81
2023-02-27T01:19:59.474Z,98922.81
2023-02-27T01:22:25.864Z,98925.41
2023-02-27T01:24:52.446Z,98938.22
2023-02-27T01:27:18.818Z,98931.41
2023-02-27T01:29:45.194Z,98936.50
2023-02-27T01:32:11.880Z,98938.22
2023-02-27T01:34:38.295Z,98927.13
2023-02-27T01:37:04.692Z,98922.84
2023-02-27T01:39:32.813Z,98922.84
2023-02-27T01:41:59.781Z,98921.13
2023-02-27T01:44:27.038Z,98936.53
2023-02-27T01:46:53.374Z,98945.06
2023-02-27T01:49:32.510Z,98946.78
2023-02-27T01:52:05.614Z,98950.19
2023-02-27T01:54:34.927Z,98945.06
2023-02-27T01:57:03.142Z,98938.25
2023-02-27T01:59:29.627Z,98926.25
2023-02-27T02:01:56.254Z,98921.16
2023-02-27T02:04:26.331Z,98926.25
2023-02-27T02:06:59.928Z,98932.25
2023-02-27T02:09:26.405Z,98940.81
2023-02-27T02:11:53.046Z,98943.34
2023-02-27T02:14:19.551Z,98942.50
2023-02-27T02:16:54.662Z,98951.91
2023-02-27T02:19:46.120Z,98943.38
2023-02-27T02:22:12.635Z,98951.91
2023-02-27T02:25:13.274Z,98951.91
2023-02-27T02:27:58.500Z,98936.53
2023-02-27T02:31:03.447Z,98950.19
2023-02-27T02:33:42.042Z,98958.75
2023-02-27T02:36:42.429Z,98974.97
2023-02-27T02:39:29.313Z,98974.13
2023-02-27T02:42:05.620Z,98968.13
2023-02-27T02:44:51.202Z,98965.59
2023-02-27T02:47:23.086Z,98961.31
2023-02-27T02:49:55.499Z,98959.59
2023-02-27T02:52:28.103Z,98963.03
2023-02-27T02:55:08.415Z,98956.16
2023-02-27T02:57:45.604Z,98942.50
2023-02-27T03:00:16.109Z,98944.22
2023-02-27T03:02:54.173Z,98941.69
2023-02-27T03:05:33.117Z,98945.06
2023-02-27T03:08:05.009Z,98951.91
2023-02-27T03:10:40.393Z,98952.78
2023-02-27T03:13:17.904Z,98943.38
2023-02-27T03:15:47.440Z,98934.00
2023-02-27T03:18:19.641Z,98939.97
2023-02-27T03:20:49.469Z,98935.69
2023-02-27T03:23:18.182Z,98924.59
2023-02-27T03:25:46.277Z,98917.75
2023-02-27T03:28:18.779Z,98914.34
2023-02-27T03:30:49.637Z,98909.22
2023-02-27T03:33:40.157Z,98902.41
2023-02-27T03:36:11.975Z,98909.22
2023-02-27T03:38:41.363Z,98912.63
2023-02-27T03:41:20.128Z,98913.47
2023-02-27T03:43:51.420Z,98928.00
2023-02-27T03:46:21.011Z,98924.56
2023-02-27T03:48:47.453Z,98926.28
2023-02-27T03:51:15.877Z,98909.22
2023-02-27T03:54:10.946Z,98913.47
2023-02-27T03:57:01.291Z,98924.59
2023-02-27T03:59:28.238Z,98930.56
2023-02-27T04:01:55.534Z,98951.88
2023-02-27T04:04:22.063Z,98968.94
2023-02-27T04:07:10.643Z,98977.44
2023-02-27T04:10:07.809Z,98972.34
2023-02-27T04:13:03.397Z,98986.00
2023-02-27T04:16:07.102Z,98983.44
2023-02-27T04:18:51.249Z,98988.53
2023-02-27T04:21:59.346Z,98991.09
2023-02-27T04:24:34.576Z,98980.00
2023-02-27T04:27:38.601Z,98968.91
2023-02-27T04:30:16.405Z,98974.88
2023-02-27T04:32:53.416Z,98990.25
2023-02-27T04:35:25.846Z,98996.19
2023-02-27T04:38:06.427Z,99001.31
2023-02-27T04:40:37.433Z,99000.47
2023-02-27T04:43:04.020Z,98991.09
2023-02-27T04:45:30.414Z,98981.72
2023-02-27T04:48:00.561Z,98975.72
2023-02-27T04:50:52.207Z,98951.88
2023-02-27T04:53:39.506Z,98943.34
2023-02-27T04:56:09.658Z,98933.09
2023-02-27T04:58:45.322Z,98938.22
2023-02-27T05:01:15.112Z,98951.88
2023-02-27T05:03:47.435Z,98965.50
2023-02-27T05:06:14.582Z,98972.34
2023-02-27T05:08:58.902Z,98951.84
2023-02-27T05:11:29.824Z,98969.75
2023-02-27T05:14:04.060Z,98980.84
2023-02-27T05:16:39.013Z,98985.94
2023-02-27T05:19:05.433Z,98995.31
2023-02-27T05:21:41.140Z,98988.50
2023-02-27T05:24:33.079Z,98979.13
2023-02-27T05:27:31.423Z,98961.22
2023-02-27T05:30:26.045Z,98962.09
2023-02-27T05:32:56.826Z,98962.06
2023-02-27T05:35:28.923Z,98968.91
2023-02-27T05:37:59.510Z,98980.84
2023-02-27T05:40:30.777Z,98977.44
2023-02-27T05:43:13.034Z,98990.22
2023-02-27T05:45:40.750Z,98996.19
2023-02-27T05:48:35.790Z,99002.97
2023-02-27T05:51:02.154Z,99015.78
2023-02-27T05:53:30.731Z,99019.19
2023-02-27T05:55:58.906Z,99030.25
2023-02-27T05:58:28.356Z,99031.97
2023-02-27T06:00:56.775Z,99038.75
2023-02-27T06:03:23.177Z,99040.47
2023-02-27T06:05:50.079Z,99029.41
2023-02-27T06:08:16.431Z,99021.75
2023-02-27T06:10:42.806Z,99011.56
2023-02-27T06:13:09.145Z,99001.31
2023-02-27T06:15:35.700Z,99001.34
2023-02-27T06:18:02.094Z,98991.16
2023-02-27T06:20:28.650Z,98989.44
2023-02-27T06:22:55.045Z,98988.59
2023-02-27T06:25:22.235Z,98962.16
2023-02-27T06:27:48.625Z,98933.13
2023-02-27T06:30:15.188Z,98903.22
2023-02-27T06:32:41.544Z,98862.22
2023-02-27T06:35:08.522Z,98822.03
2023-02-27T06:37:34.862Z,98803.22
2023-02-27T06:40:01.212Z,98793.81
2023-02-27T06:42:27.602Z,98776.69
2023-02-27T06:44:54.027Z,98765.56
2023-02-27T06:47:20.392Z,98759.50
2023-02-27T06:49:46.784Z,98748.38
2023-02-27T06:52:13.170Z,98738.94
2023-02-27T06:54:39.601Z,98717.50
2023-02-27T06:57:06.046Z,98683.19
2023-02-27T06:59:32.428Z,98655.75
2023-02-27T07:01:59.193Z,98621.47
2023-02-27T07:04:25.668Z,98600.03
2023-02-27T07:07:32.447Z,98575.16
2023-02-27T07:09:39.431Z,98575.94
2023-02-27T07:12:06.335Z,98561.31
2023-02-27T07:14:32.749Z,98540.75
2023-02-27T07:17:03.119Z,98523.56
2023-02-27T07:19:29.917Z,98523.50
2023-02-27T07:21:56.299Z,98501.16
2023-02-27T07:24:22.732Z,98495.94
2023-02-27T07:26:49.257Z,98477.13
2023-02-27T07:29:15.840Z,98478.72
2023-02-27T07:31:42.202Z,98476.97
2023-02-27T07:34:11.885Z,98478.66
2023-02-27T07:36:38.680Z,98483.75
2023-02-27T07:39:05.773Z,98485.47
2023-02-27T07:41:32.140Z,98478.56
2023-02-27T07:43:58.503Z,98477.66
2023-02-27T07:46:27.367Z,98478.44
2023-02-27T07:48:54.338Z,98478.44
2023-02-27T07:51:20.764Z,98480.19
2023-02-27T07:53:47.150Z,98480.19
2023-02-27T07:56:13.923Z,98462.16
2023-02-27T07:58:40.279Z,98447.44
2023-02-27T08:01:06.817Z,98426.72
2023-02-27T08:03:33.189Z,98412.84
2023-02-27T08:06:02.129Z,98399.81
2023-02-27T08:08:29.561Z,98390.28
2023-02-27T08:10:56.190Z,98387.56
2023-02-27T08:13:42.258Z,98384.94
2023-02-27T08:16:09.218Z,98380.53
2023-02-27T08:18:35.580Z,98385.56
2023-02-27T08:21:05.014Z,98389.03
2023-02-27T08:23:32.326Z,98384.69
2023-02-27T08:25:58.891Z,98388.81
2023-02-27T08:28:25.346Z,98397.16
2023-02-27T08:30:51.733Z,98388.44
2023-02-27T08:33:18.131Z,98402.00
2023-02-27T08:35:44.690Z,98416.50
2023-02-27T08:38:11.101Z,98411.25
2023-02-27T08:40:37.662Z,98405.88
2023-02-27T08:43:04.166Z,98402.25
2023-02-27T08:45:30.738Z,98429.69
2023-02-27T08:47:57.453Z,98461.47
2023-02-27T08:50:23.866Z,98487.09
2023-02-27T08:52:50.458Z,98508.44
2023-02-27T08:55:16.929Z,98516.94
2023-02-27T08:57:43.526Z,98511.69
2023-02-27T09:00:10.745Z,98532.19
2023-02-27T09:02:37.218Z,98560.50
2023-02-27T09:05:03.806Z,98566.44
2023-02-27T09:07:30.425Z,98567.16
2023-02-27T09:09:56.815Z,98553.19
2023-02-27T09:12:23.360Z,98564.34
2023-02-27T09:14:49.725Z,98591.66
2023-02-27T09:17:16.386Z,98620.72
2023-02-27T09:19:42.783Z,98640.47
2023-02-27T09:22:09.143Z,98662.03
2023-02-27T09:24:36.404Z,98657.53
2023-02-27T09:27:02.845Z,98635.81
2023-02-27T09:29:29.455Z,98651.25
2023-02-27T09:31:55.944Z,98670.94
2023-02-27T09:34:22.531Z,98661.41
2023-02-27T09:36:48.944Z,98666.63
2023-02-27T09:39:15.515Z,98689.16
2023-02-27T09:41:54.208Z,98689.22
2023-02-27T09:44:45.246Z,98690.03
2023-02-27T09:47:27.673Z,98694.31
2023-02-27T09:50:02.583Z,98683.94
2023-02-27T09:52:30.167Z,98706.19
2023-02-27T09:54:56.699Z,98719.09
2023-02-27T09:57:38.384Z,98726.78
2023-02-27T10:00:19.544Z,98736.09
2023-02-27T10:02:58.147Z,98733.41
2023-02-27T10:05:41.234Z,98745.28
2023-02-27T10:08:35.764Z,98775.25
2023-02-27T10:11:07.468Z,98794.09
2023-02-27T10:14:18.889Z,98806.84
2023-02-27T10:16:46.274Z,98815.13
2023-02-27T10:19:23.865Z,98833.72
2023-02-27T10:21:50.925Z,98846.19
2023-02-27T10:24:30.472Z,98865.50
2023-02-27T10:26:58.042Z,98916.06
2023-02-27T10:29:31.437Z,98955.69
2023-02-27T10:32:07.216Z,98972.00
2023-02-27T10:34:33.686Z,98970.25
2023-02-27T10:37:01.425Z,98980.41
2023-02-27T10:39:29.464Z,98984.38
2023-02-27T10:41:57.381Z,99003.09
2023-02-27T10:44:24.532Z,99008.31
2023-02-27T10:46:52.122Z,99031.56
2023-02-27T10:49:20.382Z,99054.75
2023-02-27T10:52:05.912Z,99071.94
2023-02-27T10:54:32.383Z,99092.91
2023-02-27T10:57:01.047Z,99114.56
2023-02-27T10:59:40.475Z,99123.06
2023-02-27T11:02:39.704Z,99101.88
2023-02-27T11:05:16.378Z,99117.13
2023-02-27T11:07:42.918Z,99118.28
2023-02-27T11:10:22.934Z,99125.09
2023-02-27T11:13:03.815Z,99140.13
2023-02-27T11:15:35.369Z,99157.53
2023-02-27T11:18:38.164Z,99138.56
2023-02-27T11:21:23.531Z,99133.81
2023-02-27T11:23:50.950Z,99159.59
2023-02-27T11:26:24.910Z,99162.81
2023-02-27T11:29:11.552Z,99194.44
2023-02-27T11:31:38.339Z,99188.53
2023-02-27T11:34:05.108Z,99203.63
2023-02-27T11:36:41.957Z,99235.97
2023-02-27T11:39:22.471Z,99235.50
2023-02-27T11:41:48.834Z,99250.81
2023-02-27T11:44:17.215Z,99240.63
2023-02-27T11:46:49.030Z,99258.59
2023-02-27T11:49:21.630Z,99268.66
2023-02-27T11:51:57.874Z,99269.38
2023-02-27T11:55:00.670Z,99291.91
2023-02-27T11:57:30.481Z,99298.88
2023-02-27T12:00:06.836Z,99300.63
2023-02-27T12:02:46.528Z,99295.41
2023-02-27T12:05:18.107Z,99322.44
2023-02-27T12:07:46.868Z,99297.69
2023-02-27T12:10:18.685Z,99309.78
2023-02-27T12:13:11.205Z,99334.06
2023-02-27T12:15:42.190Z,99316.66
2023-02-27T12:18:30.828Z,99345.78
2023-02-27T12:21:40.510Z,99366.69
2023-02-27T12:24:38.062Z,99379.59
2023-02-27T12:27:13.494Z,99397.66
2023-02-27T12:29:41.864Z,99392.78
2023-02-27T12:32:31.521Z,99417.06
2023-02-27T12:35:19.950Z,99437.88
2023-02-27T12:37:46.325Z,99460.41
2023-02-27T12:40:16.997Z,99461.22
2023-02-27T12:42:49.513Z,99452.59
2023-02-27T12:45:43.490Z,99473.00
2023-02-27T12:48:23.092Z,99495.41
2023-02-27T12:51:12.402Z,99516.22
2023-02-27T12:54:06.995Z,99544.06
2023-02-27T12:56:41.106Z,99537.19
2023-02-27T12:59:22.949Z,99511.03
2023-02-27T13:01:58.534Z,99523.03
2023-02-27T13:04:42.725Z,99532.72
2023-02-27T13:07:24.416Z,99544.22
2023-02-27T13:09:53.604Z,99552.28
2023-02-27T13:12:19.926Z,99567.94
2023-02-27T13:14:47.549Z,99548.97
2023-02-27T13:17:23.424Z,99565.66
2023-02-27T13:20:12.674Z,99578.69
2023-02-27T13:22:43.939Z,99574.38
2023-02-27T13:25:14.124Z,99585.34
2023-02-27T13:27:47.667Z,99596.09
2023-02-27T13:30:16.323Z,99599.47
2023-02-27T13:33:01.920Z,99624.50
2023-02-27T13:35:38.804Z,99671.69
2023-02-27T13:38:32.331Z,99682.59
2023-02-27T13:41:24.324Z,99663.84
2023-02-27T13:43:54.932Z,99653.72
2023-02-27T13:46:33.775Z,99664.94
2023-02-27T13:49:09.162Z,99635.53
2023-02-27T13:51:35.615Z,99631.25
2023-02-27T13:54:14.242Z,99615.53
2023-02-27T13:56:59.762Z,99665.66
2023-02-27T13:59:34.149Z,99669.06
2023-02-27T14:02:04.881Z,99677.59
2023-02-27T14:04:33.044Z,99663.69
2023-02-27T14:07:21.315Z,99663.50
2023-02-27T14:09:52.319Z,99655.59
2023-02-27T14:12:45.098Z,99677.25
2023-02-27T14:15:21.466Z,99704.13
2023-02-27T14:17:50.950Z,99747.38
2023-02-27T14:20:29.840Z,99741.41
2023-02-27T14:23:15.092Z,99714.53
2023-02-27T14:25:44.391Z,99729.28
2023-02-27T14:28:21.167Z,99707.66
2023-02-27T14:31:08.891Z,99727.63
2023-02-27T14:33:48.495Z,99729.28
2023-02-27T14:36:26.097Z,99745.78
2023-02-27T14:38:57.677Z,99749.19
2023-02-27T14:41:27.355Z,99735.16
2023-02-27T14:43:57.548Z,99742.72
2023-02-27T14:46:31.443Z,99770.50
2023-02-27T14:49:02.665Z,99737.69
2023-02-27T14:51:33.706Z,99737.69
2023-02-27T14:54:06.429Z,99748.91
2023-02-27T14:56:33.347Z,99721.22
2023-02-27T14:59:05.075Z,99746.41
2023-02-27T15:01:35.143Z,99803.63
2023-02-27T15:04:01.781Z,99839.22
2023-02-27T15:06:34.306Z,99845.22
2023-02-27T15:09:00.802Z,99843.53
2023-02-27T15:11:27.722Z,99840.09
2023-02-27T15:14:02.237Z,99835.81
2023-02-27T15:16:30.797Z,99825.50
2023-02-27T15:19:03.862Z,99826.41
2023-02-27T15:21:34.006Z,99833.38
2023-02-27T15:24:05.192Z,99803.91
2023-02-27T15:26:40.798Z,99793.53
2023-02-27T15:29:08.026Z,99811.59
2023-02-27T15:31:34.587Z,99810.84
2023-02-27T15:34:01.663Z,99804.75
2023-02-27T15:36:33.255Z,99809.09
2023-02-27T15:39:20.410Z,99809.00
2023-02-27T15:41:49.652Z,99808.91
2023-02-27T15:44:17.258Z,99844.50
2023-02-27T15:46:44.509Z,99895.66
2023-02-27T15:49:15.763Z,99869.56
2023-02-27T15:51:42.247Z,99895.34
2023-02-27T15:54:09.777Z,99867.59
2023-02-27T15:56:36.956Z,99895.53
2023-02-27T15:59:03.315Z,99864.59
2023-02-27T16:01:34.822Z,99829.09
2023-02-27T16:04:05.922Z,99826.41
2023-02-27T16:06:37.566Z,99823.13
2023-02-27T16:09:19.219Z,99810.16
2023-02-27T16:11:45.603Z,99785.16
2023-02-27T16:14:36.336Z,99774.13
2023-02-27T16:17:02.729Z,99752.69
2023-02-27T16:19:31.000Z,99733.72
2023-02-27T16:22:13.085Z,99733.78
2023-02-27T16:24:39.466Z,99739.00
2023-02-27T16:27:05.857Z,99751.13
2023-02-27T16:29:44.151Z,99751.97
2023-02-27T16:32:30.737Z,99745.22
2023-02-27T16:35:20.547Z,99746.06
2023-02-27T16:37:47.943Z,99757.28
2023-02-27T16:40:19.330Z,99770.22
2023-02-27T16:42:46.176Z,99793.53
2023-02-27T16:45:17.352Z,99806.53
2023-02-27T16:47:44.000Z,99779.09
2023-02-27T16:50:26.008Z,99770.44
2023-02-27T16:52:52.424Z,99769.69
2023-02-27T16:55:18.765Z,99747.34
2023-02-27T16:57:45.337Z,99722.47
2023-02-27T17:00:15.806Z,99753.53
2023-02-27T17:02:42.989Z,99750.13
2023-02-27T17:05:09.788Z,99744.09
2023-02-27T17:07:36.287Z,99720.00
2023-02-27T17:10:02.817Z,99714.03
2023-02-27T17:12:29.392Z,99722.66
2023-02-27T17:14:56.273Z,99706.22
2023-02-27T17:17:22.718Z,99722.66
2023-02-27T17:19:49.331Z,99726.06
2023-02-27T17:22:15.776Z,99743.31
2023-02-27T17:24:42.405Z,99750.25
2023-02-27T17:27:09.568Z,99750.25
2023-02-27T17:29:37.722Z,99726.09
2023-02-27T17:32:04.380Z,99707.16
2023-02-27T17:34:30.846Z,99696.84
2023-02-27T17:36:57.201Z,99692.59
2023-02-27T17:39:23.610Z,99695.19
2023-02-27T17:41:52.858Z,99716.72
2023-02-27T17:44:19.258Z,99706.34
2023-02-27T17:46:45.613Z,99746.03
2023-02-27T17:49:12.230Z,99726.16
2023-02-27T17:51:38.658Z,99722.75
2023-02-27T17:54:05.427Z,99707.28
2023-02-27T17:56:32.099Z,99691.81
2023-02-27T17:58:58.702Z,99707.38
2023-02-27T18:01:25.974Z,99703.06
2023-02-27T18:03:54.243Z,99690.22
2023-02-27T18:06:21.006Z,99694.59
2023-02-27T18:08:48.012Z,99687.78
2023-02-27T18:11:16.652Z,99668.84
2023-02-27T18:13:43.227Z,99666.34
2023-02-27T18:16:09.902Z,99646.56
2023-02-27T18:18:40.224Z,99649.22
2023-02-27T18:21:12.023Z,99631.13
2023-02-27T18:23:38.432Z,99625.13
2023-02-27T18:26:04.942Z,99616.50
2023-02-27T18:28:31.337Z,99618.28
2023-02-27T18:30:57.761Z,99609.66
2023-02-27T18:33:24.358Z,99616.56
2023-02-27T18:35:50.844Z,99608.81
2023-02-27T18:38:17.344Z,99600.25
2023-02-27T18:40:44.010Z,99585.63
2023-02-27T18:43:10.765Z,99571.84
2023-02-27T18:45:37.565Z,99571.81
2023-02-27T18:48:04.100Z,99559.72
2023-02-27T18:50:30.790Z,99556.28
2023-02-27T18:52:58.618Z,99558.88
2023-02-27T18:55:25.071Z,99554.63
2023-02-27T18:57:51.424Z,99543.44
2023-02-27T19:00:18.990Z,99546.94
2023-02-27T19:02:45.498Z,99527.13
2023-02-27T19:05:12.066Z,99525.47
2023-02-27T19:07:38.599Z,99506.53
2023-02-27T19:10:06.155Z,99494.47
2023-02-27T19:12:32.534Z,99482.38
2023-02-27T19:14:58.995Z,99477.22
2023-02-27T19:17:25.748Z,99473.78
2023-02-27T19:19:55.212Z,99475.53
2023-02-27T19:22:21.669Z,99470.44
2023-02-27T19:24:49.710Z,99471.25
2023-02-27T19:27:17.125Z,99475.56
2023-02-27T19:29:43.623Z,99473.00
2023-02-27T19:32:10.455Z,99475.56
2023-02-27T19:34:37.925Z,99472.16
2023-02-27T19:37:04.328Z,99453.22
2023-02-27T19:39:30.746Z,99450.66
2023-02-27T19:41:57.440Z,99448.09
2023-02-27T19:44:23.857Z,99438.56
2023-02-27T19:46:52.110Z,99443.78
2023-02-27T19:49:18.883Z,99427.44
2023-02-27T19:51:45.255Z,99441.25
2023-02-27T19:54:15.764Z,99443.03
2023-02-27T19:56:42.231Z,99451.69
2023-02-27T19:59:09.673Z,99450.00
2023-02-27T20:01:38.740Z,99444.88
2023-02-27T20:04:06.013Z,99438.88
2023-02-27T20:06:33.709Z,99434.66
2023-02-27T20:09:00.224Z,99434.69
2023-02-27T20:11:33.017Z,99416.69
2023-02-27T20:13:59.752Z,99417.56
2023-02-27T20:16:28.893Z,99414.13
2023-02-27T20:18:55.810Z,99396.03
2023-02-27T20:21:23.139Z,99391.75
2023-02-27T20:23:51.519Z,99384.00
2023-02-27T20:26:19.098Z,99392.66
2023-02-27T20:28:46.131Z,99390.09
2023-02-27T20:31:12.907Z,99390.19
2023-02-27T20:33:40.044Z,99375.59
2023-02-27T20:36:07.541Z,99366.16
2023-02-27T20:38:34.135Z,99367.03
2023-02-27T20:41:00.813Z,99367.06
2023-02-27T20:43:30.364Z,99361.94
2023-02-27T20:45:56.941Z,99373.16
2023-02-27T20:48:23.458Z,99376.66
2023-02-27T20:50:49.850Z,99386.19
2023-02-27T20:53:16.209Z,99390.59
2023-02-27T20:55:49.290Z,99385.53
2023-02-27T20:58:16.031Z,99385.59
2023-02-27T21:00:42.507Z,99390.00
2023-02-27T21:03:08.889Z,99382.31
2023-02-27T21:05:35.236Z,99378.06
2023-02-27T21:08:01.617Z,99366.94
2023-02-27T21:10:27.980Z,99356.66
2023-02-27T21:12:54.392Z,99360.13
2023-02-27T21:15:20.734Z,99356.75
2023-02-27T21:17:47.115Z,99355.06
2023-02-27T21:20:13.896Z,99341.34
2023-02-27T21:22:40.418Z,99340.50
2023-02-27T21:25:07.063Z,99331.97
2023-02-27T21:27:33.459Z,99327.66
2023-02-27T21:29:59.832Z,99318.22
2023-02-27T21:32:26.440Z,99296.69
2023-02-27T21:34:52.826Z,99288.94
2023-02-27T21:37:19.164Z,99272.59
2023-02-27T21:39:50.398Z,99271.66
2023-02-27T21:42:16.757Z,99270.78
2023-02-27T21:44:43.747Z,99287.06
2023-02-27T21:47:10.421Z,99288.75
2023-02-27T21:49:37.199Z,99299.06
2023-02-27T21:52:03.612Z,99287.03
2023-02-27T21:54:30.033Z,99296.47
2023-02-27T21:56:58.741Z,99303.38
2023-02-27T21:59:25.902Z,99308.53
2023-02-27T22:01:52.293Z,99312.88
2023-02-27T22:04:19.387Z,99320.59
2023-02-27T22:06:46.348Z,99319.72
2023-02-27T22:09:12.776Z,99311.16
2023-02-27T22:11:40.751Z,99305.13
2023-02-27T22:14:07.430Z,99296.53
2023-02-27T22:16:34.034Z,99284.50
2023-02-27T22:19:05.028Z,99277.59
2023-02-27T22:21:32.222Z,99271.56
2023-02-27T22:23:58.847Z,99275.81
2023-02-27T22:26:26.372Z,99275.78
2023-02-27T22:28:52.775Z,99273.19
2023-02-27T22:31:20.933Z,99270.59
2023-02-27T22:33:48.528Z,99271.47
2023-02-27T22:36:17.277Z,99262.84
2023-02-27T22:38:43.651Z,99254.25
2023-02-27T22:41:14.728Z,99263.69
2023-02-27T22:43:41.243Z,99260.28
2023-02-27T22:46:08.217Z,99262.88
2023-02-27T22:48:35.070Z,99261.19
2023-02-27T22:51:19.661Z,99262.13
2023-02-27T22:53:46.629Z,99268.19
2023-02-27T22:56:14.607Z,99267.44
2023-02-27T22:58:41.637Z,99252.00
2023-02-27T23:01:16.385Z,99265.81
2023-02-27T23:03:43.763Z,99267.59
2023-02-27T23:06:15.175Z,99257.34
2023-02-27T23:08:42.484Z,99253.94
2023-02-27T23:11:09.737Z,99247.09
2023-02-27T23:13:36.519Z,99246.25
2023-02-27T23:16:08.136Z,99240.31
2023-02-27T23:18:34.733Z,99238.56
2023-02-27T23:21:03.380Z,99235.19
2023-02-27T23:23:29.929Z,99242.06
2023-02-27T23:25:56.912Z,99243.81
2023-02-27T23:28:23.252Z,99245.53
2023-02-27T23:30:50.032Z,99239.50
2023-02-27T23:33:16.647Z,99229.19
2023-02-27T23:35:43.321Z,99222.34
2023-02-27T23:38:09.694Z,99214.63
2023-02-27T23:40:36.245Z,99218.91
2023-02-27T23:43:02.571Z,99232.69
2023-02-27T23:45:29.186Z,99237.84
2023-02-27T23:47:56.358Z,99239.59
2023-02-27T23:50:24.645Z,99230.19
2023-02-27T23:52:52.102Z,99221.59
2023-02-27T23:55:19.016Z,99207.91
2023-02-27T23:57:45.450Z,99194.16
